Time;durP1;ratioP1;P1;durP2;ratioP2;P2;SDS_P1;SDS_P2;PMS_P1;PMS_P2;Temp;Humidity;BMP_temperature;BMP_pressure;BME280_temperature;BME280_humidity;BME280_pressure;Samples;Min_cycle;Max_cycle;Signal;HPM_P1;HPM_P2
2022/07/28 00:01:42;;;;;;;4.63;4.05;;;18.20;70.10;;;17.38;80.89;95970.06;4966792;28;20031;-65
2022/07/28 00:04:07;;;;;;;5.60;4.00;;;18.30;70.20;;;17.39;81.43;95963.72;4933267;28;20043;-65
2022/07/28 00:06:33;;;;;;;7.38;4.18;;;18.30;70.00;;;17.37;80.88;95963.13;4945418;28;20046;-66
2022/07/28 00:08:59;;;;;;;4.97;3.85;;;18.30;70.10;;;17.37;81.51;95960.47;4955718;28;20039;-65
2022/07/28 00:11:24;;;;;;;5.47;4.40;;;18.30;70.00;;;17.38;81.11;95956.78;4944922;28;20062;-65
2022/07/28 00:13:50;;;;;;;8.02;4.32;;;18.30;70.10;;;17.40;81.64;95954.69;4950617;28;20059;-65
2022/07/28 00:16:16;;;;;;;6.10;4.40;;;18.40;70.20;;;17.42;81.88;95957.91;4948628;28;20082;-65
2022/07/28 00:18:42;;;;;;;5.95;4.53;;;18.40;69.90;;;17.43;81.85;95954.25;4949454;28;20035;-63
2022/07/28 00:21:08;;;;;;;6.32;4.75;;;18.40;69.90;;;17.44;81.38;95953.19;4951646;28;20054;-63
2022/07/28 00:23:33;;;;;;;6.18;4.78;;;18.40;69.90;;;17.44;81.75;95954.00;4964595;28;20039;-64
2022/07/28 00:25:59;;;;;;;7.70;5.07;;;18.30;69.80;;;17.45;80.96;95957.47;4949782;28;20102;-63
2022/07/28 00:28:25;;;;;;;5.00;4.50;;;18.40;69.80;;;17.44;81.26;95953.19;4949211;28;20042;-64
2022/07/28 00:30:53;;;;;;;6.60;4.72;;;18.40;69.70;;;17.43;81.37;95948.94;4950186;28;20454;-66
2022/07/28 00:33:18;;;;;;;6.15;4.65;;;18.40;69.80;;;17.43;81.85;95959.56;4949015;28;20043;-66
2022/07/28 00:35:44;;;;;;;7.07;4.75;;;18.30;69.50;;;17.42;82.03;95952.59;4950169;28;20051;-66
2022/07/28 00:38:10;;;;;;;7.45;4.45;;;18.40;69.80;;;17.43;81.63;95954.25;4948329;28;20046;-66
2022/07/28 00:43:20;;;;;;;5.75;4.57;;;18.40;69.70;;;17.43;81.93;95948.94;4949097;28;20553;-66
2022/07/28 00:45:46;;;;;;;7.68;4.70;;;18.50;69.60;;;17.42;81.47;95952.59;4949575;28;20070;-66
2022/07/28 00:48:12;;;;;;;6.20;4.60;;;18.30;69.70;;;17.39;81.87;95950.41;4948745;28;20039;-66
2022/07/28 00:50:38;;;;;;;6.45;5.05;;;18.30;69.60;;;17.34;81.59;95940.50;4934081;28;20038;-66
2022/07/28 00:53:05;;;;;;;8.07;4.80;;;18.30;69.90;;;17.29;81.83;95947.56;4951027;28;20086;-66
2022/07/28 00:55:30;;;;;;;5.78;4.55;;;18.20;70.10;;;17.27;81.86;95944.34;4948549;28;20043;-66
2022/07/28 00:57:56;;;;;;;6.90;4.30;;;18.20;70.10;;;17.27;82.12;95939.00;4949535;28;20550;-66
2022/07/28 01:00:22;;;;;;;8.13;5.03;;;18.20;70.30;;;17.28;82.53;95935.31;4933771;28;20572;-66
2022/07/28 01:02:47;;;;;;;6.72;4.88;;;18.30;70.40;;;17.27;82.51;95939.00;4948694;28;20032;-66
2022/07/28 01:05:13;;;;;;;6.88;4.93;;;18.30;70.40;;;17.27;82.91;95931.03;4947510;28;20499;-66
2022/07/28 01:07:48;;;;;;;5.57;4.93;;;18.20;70.40;;;17.26;83.04;95924.09;4914748;29;20039;-66
2022/07/28 01:10:45;;;;;;;6.93;5.15;;;18.20;70.40;;;17.25;83.74;95925.97;4964105;28;20043;-66
2022/07/28 01:13:35;;;;;;;7.47;5.78;;;18.10;70.70;;;17.22;84.03;95922.97;4947178;28;20032;-66
2022/07/28 01:16:02;;;;;;;7.95;5.80;;;18.20;70.70;;;17.18;82.75;95919.13;4962094;28;20059;-66
2022/07/28 01:18:32;;;;;;;7.45;5.60;;;18.10;70.80;;;17.16;83.76;95916.72;4941605;28;20110;-66
2022/07/28 01:21:10;;;;;;;6.65;5.60;;;18.10;71.00;;;17.17;84.13;95913.00;4948942;28;20043;-66
2022/07/28 01:24:14;;;;;;;6.90;5.75;;;18.10;70.90;;;17.12;85.00;95919.03;4948057;28;20123;-66
2022/07/28 01:26:57;;;;;;;8.13;6.00;;;18.10;71.00;;;17.05;85.33;95913.06;4947749;28;20566;-66
2022/07/28 01:29:35;;;;;;;6.85;5.70;;;18.00;71.50;;;17.02;85.52;95908.22;4962701;28;20082;-66
2022/07/28 01:32:14;;;;;;;7.57;6.53;;;18.00;71.50;;;16.97;86.28;95913.41;4948433;28;20125;-65
2022/07/28 01:35:09;;;;;;;8.90;6.97;;;18.00;71.60;;;16.96;86.57;95906.47;4934682;28;20495;-66
2022/07/28 01:37:40;;;;;;;8.45;6.78;;;17.90;71.90;;;16.96;85.72;95906.47;4962839;28;20035;-66
2022/07/28 01:40:06;;;;;;;8.30;6.78;;;18.00;72.00;;;16.95;84.82;95894.22;4948326;28;20036;-65
2022/07/28 01:42:42;;;;;;;7.68;6.70;;;18.00;72.00;;;16.96;86.83;95900.34;4949005;28;20038;-66
2022/07/28 01:45:09;;;;;;;9.55;6.88;;;18.00;72.00;;;16.96;85.14;95903.00;4964065;28;20035;-66
2022/07/28 01:47:34;;;;;;;8.90;6.78;;;17.90;71.90;;;16.93;86.00;95901.63;4931044;28;20388;-66
2022/07/28 01:50:04;;;;;;;9.40;6.88;;;17.90;72.00;;;16.95;86.17;95896.88;4930417;28;20070;-66
2022/07/28 01:52:30;;;;;;;8.02;6.95;;;18.00;72.10;;;16.94;86.13;95903.22;4934581;28;20407;-65
2022/07/28 01:54:56;;;;;;;10.80;7.15;;;18.00;72.20;;;16.95;86.35;95899.53;4918046;29;20038;-66
2022/07/28 01:57:22;;;;;;;10.13;7.18;;;18.00;72.10;;;16.94;85.91;95899.78;4948157;28;20054;-66
2022/07/28 01:59:48;;;;;;;8.15;6.75;;;17.90;72.20;;;16.91;86.54;95887.75;4945214;28;20062;-66
2022/07/28 02:02:15;;;;;;;8.77;7.18;;;17.90;72.30;;;16.90;86.32;95894.13;4946937;28;20134;-66
2022/07/28 02:04:40;;;;;;;9.18;7.00;;;17.90;72.20;;;16.89;86.35;95895.16;4947508;28;20032;-66
2022/07/28 02:07:06;;;;;;;8.93;7.30;;;17.90;72.40;;;16.87;86.69;95891.94;4933710;28;20034;-66
2022/07/28 02:09:32;;;;;;;7.97;6.40;;;17.80;72.50;;;16.84;87.22;95887.09;4932608;28;20067;-66
2022/07/28 02:11:58;;;;;;;8.73;7.05;;;17.80;72.60;;;16.84;87.02;95887.91;4967244;28;20064;-66
2022/07/28 02:14:24;;;;;;;8.52;7.65;;;17.80;72.60;;;16.83;86.50;95882.81;4947469;28;20043;-66
2022/07/28 02:16:54;;;;;;;9.75;7.22;;;17.80;72.60;;;16.82;87.74;95894.50;4947661;28;20134;-66
2022/07/28 02:19:20;;;;;;;10.18;7.47;;;17.80;72.80;;;16.79;87.23;95884.34;4932305;28;20031;-66
2022/07/28 02:21:47;;;;;;;12.55;7.78;;;17.70;72.80;;;16.78;87.65;95882.72;4932698;28;20090;-66
2022/07/28 02:24:13;;;;;;;8.70;6.85;;;17.70;73.00;;;16.75;87.84;95885.84;4922347;28;20051;-66
2022/07/28 02:26:43;;;;;;;8.55;6.68;;;17.70;73.00;;;16.73;87.89;95885.25;4948231;28;20032;-66
2022/07/28 02:29:11;;;;;;;10.68;8.00;;;17.70;73.10;;;16.69;88.01;95890.22;4950398;28;20035;-65
2022/07/28 02:31:50;;;;;;;10.77;9.68;;;17.60;73.30;;;16.68;89.18;95882.47;4911116;29;20410;-65
2022/07/28 02:34:16;;;;;;;12.25;8.15;;;17.70;73.40;;;16.65;88.51;95882.91;4920123;28;20098;-66
2022/07/28 02:36:45;;;;;;;8.50;7.70;;;17.60;73.40;;;16.64;88.43;95881.31;4933585;28;20079;-66
2022/07/28 02:39:22;;;;;;;9.55;7.72;;;17.60;73.50;;;16.63;89.17;95879.69;4938713;28;20045;-65
2022/07/28 02:41:54;;;;;;;8.35;7.53;;;17.60;73.50;;;16.61;88.55;95881.78;4918192;28;20113;-65
2022/07/28 02:44:23;;;;;;;10.07;7.80;;;17.60;73.40;;;16.61;88.78;95884.44;4929201;28;20040;-65
2022/07/28 02:46:51;;;;;;;10.38;8.18;;;17.60;73.60;;;16.57;88.93;95877.97;4943301;28;20039;-65
2022/07/28 02:49:22;;;;;;;15.90;13.68;;;17.60;73.50;;;16.56;89.02;95884.31;4949560;28;20098;-65
2022/07/28 02:51:48;;;;;;;13.40;8.57;;;17.60;73.70;;;16.54;89.14;95884.56;4936443;28;20031;-65
2022/07/28 02:54:14;;;;;;;10.70;8.10;;;17.60;73.80;;;16.52;89.32;95874.16;4950766;28;20651;-65
2022/07/28 02:56:40;;;;;;;10.70;8.48;;;17.60;73.80;;;16.48;89.09;95878.28;4935799;28;20122;-65
2022/07/28 02:59:06;;;;;;;9.30;8.10;;;17.50;73.90;;;16.45;89.70;95878.75;4951342;28;20097;-65
2022/07/28 03:01:32;;;;;;;10.60;8.20;;;17.50;74.10;;;16.45;89.18;95878.75;4936074;29;20031;-65
2022/07/28 03:03:58;;;;;;;10.98;8.90;;;17.50;74.10;;;16.43;89.71;95875.53;4948624;28;20039;-65
2022/07/28 03:06:24;;;;;;;10.05;8.05;;;17.50;74.20;;;16.43;89.88;95880.84;4950447;28;20420;-64
2022/07/28 03:08:50;;;;;;;9.80;8.80;;;17.40;74.40;;;16.41;90.18;95876.81;4951348;28;20079;-65
2022/07/28 03:11:16;;;;;;;13.10;10.43;;;17.40;74.40;;;16.40;90.60;95886.63;4950239;28;20090;-65
2022/07/28 03:13:41;;;;;;;12.43;10.13;;;17.50;74.60;;;16.39;90.94;95890.31;4935602;28;20078;-65
2022/07/28 03:16:07;;;;;;;12.48;10.10;;;17.40;74.50;;;16.37;90.42;95895.03;4951219;28;20039;-65
2022/07/28 03:18:33;;;;;;;15.30;12.20;;;17.40;74.70;;;16.36;90.98;95890.78;4935125;28;20038;-65
2022/07/28 03:20:59;;;;;;;15.77;11.40;;;17.40;74.80;;;16.35;90.81;95883.84;4952194;28;20058;-65
2022/07/28 03:23:39;;;;;;;13.32;9.85;;;17.40;74.80;;;16.35;92.52;95891.00;4950928;28;20031;-65
2022/07/28 03:26:11;;;;;;;11.88;8.75;;;17.30;74.80;;;16.32;91.74;95886.97;4936352;28;20031;-66
2022/07/28 03:28:37;;;;;;;12.85;9.25;;;17.40;75.00;;;16.31;90.92;95888.00;4966460;28;20027;-64
2022/07/28 03:31:06;;;;;;;10.60;8.88;;;17.30;74.90;;;16.29;91.63;95898.03;4950677;28;20345;-65
2022/07/28 03:33:32;;;;;;;12.20;8.57;;;17.30;75.00;;;16.27;91.16;95897.44;4950479;28;20046;-65
2022/07/28 03:36:01;;;;;;;10.63;8.93;;;17.30;74.90;;;16.28;91.68;95900.91;4951164;28;20507;-65
2022/07/28 03:38:42;;;;;;;10.93;9.18;;;17.30;74.90;;;16.27;92.13;95893.97;4949666;28;20045;-65
2022/07/28 03:41:08;;;;;;;12.63;9.48;;;17.30;75.00;;;16.25;91.93;95899.53;4952482;28;20039;-65
2022/07/28 03:43:34;;;;;;;10.30;9.05;;;17.30;75.10;;;16.23;92.17;95885.66;4950311;28;20392;-65
2022/07/28 03:45:59;;;;;;;10.27;9.15;;;17.30;75.10;;;16.22;92.11;95900.78;4950749;28;20039;-66
2022/07/28 03:48:32;;;;;;;11.88;9.82;;;17.30;75.10;;;16.19;92.96;95895.13;4953199;28;20039;-67
2022/07/28 03:50:58;;;;;;;13.50;9.88;;;17.20;75.20;;;16.15;92.42;95894.78;4951106;28;20047;-65
2022/07/28 03:53:25;;;;;;;12.35;9.63;;;17.20;75.20;;;16.15;92.90;95893.97;4950289;28;20175;-65
2022/07/28 03:55:51;;;;;;;11.95;9.32;;;17.20;75.30;;;16.15;92.48;95896.63;4946826;28;20039;-65
2022/07/28 03:58:26;;;;;;;11.27;9.77;;;17.20;75.30;;;16.14;94.03;95895.81;4914424;28;20067;-65
2022/07/28 04:00:52;;;;;;;10.85;9.55;;;17.20;75.50;;;16.13;92.64;95896.06;4931735;28;20106;-65
2022/07/28 04:03:18;;;;;;;12.63;10.18;;;17.20;75.60;;;16.12;93.13;95889.13;4932219;28;20035;-65
2022/07/28 04:05:44;;;;;;;11.43;9.68;;;17.20;75.60;;;16.07;93.79;95896.94;4935191;29;20036;-65
2022/07/28 04:08:10;;;;;;;11.57;10.18;;;17.10;76.00;;;16.03;93.65;95895.78;4949919;28;20031;-65
2022/07/28 04:10:35;;;;;;;12.13;10.38;;;17.10;76.20;;;16.00;94.22;95893.59;4938977;28;20117;-65
2022/07/28 04:13:02;;;;;;;11.38;10.20;;;17.10;76.30;;;15.99;94.39;95897.28;4950571;28;20039;-65
2022/07/28 04:15:28;;;;;;;12.18;10.65;;;17.10;76.30;;;15.98;94.95;95903.63;4949872;28;20031;-65
2022/07/28 04:17:54;;;;;;;14.55;11.48;;;17.10;76.50;;;15.96;95.80;95906.50;4950061;28;20487;-65
2022/07/28 04:20:21;;;;;;;13.88;10.73;;;17.00;76.60;;;15.95;95.29;95899.59;4947689;28;20071;-66
2022/07/28 04:22:47;;;;;;;12.18;10.40;;;17.10;76.70;;;15.96;95.62;95900.41;4933043;28;20419;-66
2022/07/28 04:25:14;;;;;;;13.35;10.63;;;17.10;76.60;;;15.98;95.67;95898.31;4945917;28;20058;-70
2022/07/28 04:27:43;;;;;;;11.93;10.20;;;17.20;76.50;;;16.00;96.78;95896.25;4964788;28;20024;-67
2022/07/28 04:30:16;;;;;;;12.88;10.63;;;17.20;76.50;;;16.04;96.55;95902.72;4948526;28;20031;-69
2022/07/28 04:32:42;;;;;;;13.00;10.75;;;17.10;76.50;;;16.03;95.66;95898.44;4931089;28;20039;-65
2022/07/28 04:35:08;;;;;;;11.93;10.38;;;17.20;76.50;;;16.04;96.70;95908.03;4965649;28;20039;-65
2022/07/28 04:37:34;;;;;;;13.48;11.18;;;17.20;76.60;;;16.03;96.48;95901.09;4947936;28;20082;-65
2022/07/28 04:40:00;;;;;;;13.15;11.52;;;17.20;76.60;;;16.03;96.93;95901.09;4961738;28;20031;-65
2022/07/28 04:42:26;;;;;;;17.50;15.60;;;17.20;76.70;;;16.07;96.44;95899.59;4935217;28;20562;-65
2022/07/28 04:44:51;;;;;;;16.23;14.23;;;17.30;76.50;;;16.05;97.06;95899.03;4932940;28;20859;-65
2022/07/28 04:47:17;;;;;;;13.52;10.68;;;17.20;76.50;;;16.05;97.19;95901.69;4948372;28;20054;-65
2022/07/28 04:49:43;;;;;;;13.68;10.68;;;17.30;76.50;;;16.07;96.73;95908.41;4947365;28;20495;-65
2022/07/28 04:52:08;;;;;;;12.73;11.23;;;17.30;76.50;;;16.06;96.56;95903.28;4945180;28;20034;-65
2022/07/28 04:54:35;;;;;;;16.42;11.48;;;17.20;76.70;;;16.08;97.27;95903.91;4963417;28;20051;-65
2022/07/28 04:57:01;;;;;;;15.57;11.63;;;17.30;76.60;;;16.10;97.82;95907.13;4934873;28;20109;-65
2022/07/28 04:59:27;;;;;;;18.10;11.63;;;17.40;76.90;;;16.10;98.11;95899.97;4932424;28;20031;-65
2022/07/28 05:01:52;;;;;;;12.35;10.98;;;17.30;77.00;;;16.14;97.68;95908.28;4964199;28;20078;-65
2022/07/28 05:04:18;;;;;;;14.98;10.90;;;17.40;76.90;;;16.16;97.97;95906.22;4947534;28;20094;-64
2022/07/28 05:06:44;;;;;;;15.50;10.93;;;17.40;76.90;;;16.18;98.48;95912.09;4948532;28;20046;-65
2022/07/28 05:09:09;;;;;;;14.68;10.40;;;17.40;76.90;;;16.23;98.49;95909.56;4964988;28;20503;-65
2022/07/28 05:11:35;;;;;;;12.10;10.68;;;17.60;76.70;;;16.27;98.32;95908.06;4966504;28;20043;-67
2022/07/28 05:14:01;;;;;;;13.88;10.25;;;17.60;76.60;;;16.34;98.02;95914.09;4933757;28;20035;-66
2022/07/28 05:16:27;;;;;;;14.23;10.70;;;17.60;76.60;;;16.38;98.47;95920.56;4931526;28;20035;-66
2022/07/28 05:18:52;;;;;;;12.32;10.38;;;17.70;76.60;;;16.44;98.46;95910.84;4932667;28;20590;-66
2022/07/28 05:21:18;;;;;;;12.68;10.57;;;17.70;76.40;;;16.47;98.05;95923.66;4947540;28;20046;-66
2022/07/28 05:23:44;;;;;;;13.00;10.43;;;17.80;76.20;;;16.49;97.87;95916.28;4947077;28;20027;-66
2022/07/28 05:26:10;;;;;;;11.38;10.05;;;17.80;76.20;;;16.54;97.77;95909.25;4964476;28;20943;-67
2022/07/28 05:28:35;;;;;;;11.60;10.20;;;17.90;76.10;;;16.58;97.82;95914.91;4962766;28;20097;-67
2022/07/28 05:31:01;;;;;;;11.15;10.05;;;18.00;76.00;;;16.62;98.05;95916.06;4933277;28;20061;-67
2022/07/28 05:33:27;;;;;;;11.30;10.10;;;18.00;76.00;;;16.66;97.27;95916.41;4946517;28;20043;-67
2022/07/28 05:35:56;;;;;;;14.90;10.32;;;18.10;75.40;;;16.73;97.63;95922.44;4910860;28;20475;-62
2022/07/28 05:38:22;;;;;;;14.15;12.65;;;18.20;75.00;;;16.79;97.56;95918.88;4944994;28;20050;-63
2022/07/28 05:40:48;;;;;;;16.85;10.48;;;18.20;74.90;;;16.88;96.72;95920.13;4932177;28;20068;-63
2022/07/28 05:43:14;;;;;;;12.27;10.13;;;18.30;74.80;;;16.94;96.66;95921.84;4921977;28;20039;-63
2022/07/28 05:45:40;;;;;;;9.80;8.80;;;18.40;74.60;;;17.03;96.61;95928.44;4914236;29;20070;-63
2022/07/28 05:48:06;;;;;;;10.55;9.07;;;18.60;74.50;;;17.14;96.41;95919.63;4942390;28;20028;-65
2022/07/28 05:50:31;;;;;;;10.95;8.95;;;18.60;74.00;;;17.27;96.43;95917.75;4949718;28;20106;-63
2022/07/28 05:52:57;;;;;;;11.25;8.65;;;18.80;73.60;;;17.39;95.82;95910.53;4916877;28;20106;-63
2022/07/28 05:55:23;;;;;;;10.02;7.45;;;19.00;73.30;;;17.50;94.82;95917.69;4963753;28;20024;-63
2022/07/28 05:57:49;;;;;;;11.95;7.72;;;19.10;72.10;;;17.61;94.14;95908.03;4931181;28;20098;-63
2022/07/28 06:00:17;;;;;;;12.02;7.82;;;19.20;72.00;;;17.74;93.76;95916.56;4945696;28;20587;-64
2022/07/28 06:02:47;;;;;;;10.05;7.47;;;19.30;71.70;;;17.88;93.96;95921.59;4948079;28;20086;-64
2022/07/28 06:05:15;;;;;;;12.00;7.28;;;19.50;71.10;;;18.04;92.08;95918.97;4932842;28;20047;-64
2022/07/28 06:07:42;;;;;;;10.15;7.15;;;19.70;70.20;;;18.19;91.30;95917.63;4930058;28;20495;-64
2022/07/28 06:10:08;;;;;;;10.25;6.70;;;19.80;69.70;;;18.32;90.39;95926.06;4947154;28;20039;-64
2022/07/28 06:12:53;;;;;;;9.50;6.88;;;20.10;68.80;;;18.49;89.05;95925.28;4962106;28;20462;-63
2022/07/28 06:15:21;;;;;;;9.63;6.85;;;20.20;68.40;;;18.63;89.24;95923.94;4939640;28;20038;-63
2022/07/28 06:17:51;;;;;;;9.98;7.07;;;20.40;68.20;;;18.80;88.94;95923.94;4930757;29;20031;-63
2022/07/28 06:20:16;;;;;;;9.60;6.90;;;20.60;67.90;;;18.96;87.99;95925.75;4946630;28;20042;-64
2022/07/28 06:22:46;;;;;;;8.60;6.70;;;20.80;67.50;;;19.09;86.98;95920.06;4933385;28;20335;-63
2022/07/28 06:25:16;;;;;;;11.30;6.97;;;20.90;66.50;;;19.19;86.42;95920.19;4966456;28;20043;-64
2022/07/28 06:27:44;;;;;;;10.38;6.32;;;21.00;66.30;;;19.29;86.41;95930.19;4918894;28;20039;-67
2022/07/28 06:30:10;;;;;;;7.93;6.10;;;21.20;66.10;;;19.42;85.98;95924.47;4947843;28;20047;-67
2022/07/28 06:32:36;;;;;;;8.52;6.05;;;21.40;65.70;;;19.54;86.49;95927.06;4951974;28;20035;-68
2022/07/28 06:35:03;;;;;;;8.73;6.47;;;21.50;65.10;;;19.66;84.43;95925.03;4966588;28;20534;-63
2022/07/28 06:37:28;;;;;;;8.90;5.93;;;21.70;64.30;;;19.77;84.00;95926.78;4949681;28;20043;-63
2022/07/28 06:39:54;;;;;;;8.73;5.93;;;21.80;64.00;;;19.92;83.51;95928.81;4950729;28;20077;-63
2022/07/28 06:42:20;;;;;;;10.20;6.05;;;22.00;63.80;;;20.03;83.46;95911.81;4948355;28;20411;-64
2022/07/28 06:44:45;;;;;;;9.35;5.75;;;22.10;63.60;;;20.12;82.77;95920.16;4919286;28;20570;-64
2022/07/28 06:47:11;;;;;;;8.93;5.95;;;22.10;62.80;;;20.17;82.23;95915.69;4952795;28;20031;-63
2022/07/28 06:49:37;;;;;;;6.65;5.82;;;22.20;62.20;;;20.27;82.28;95924.84;4933073;28;20122;-64
2022/07/28 06:52:03;;;;;;;8.40;6.05;;;22.40;62.40;;;20.39;81.99;95928.16;4950824;28;20070;-64
2022/07/28 06:54:28;;;;;;;7.28;6.00;;;22.50;61.90;;;20.50;80.83;95924.53;4966048;28;20046;-65
2022/07/28 06:56:54;;;;;;;6.13;5.28;;;22.60;61.90;;;20.63;81.22;95925.97;4918699;28;20042;-66
2022/07/28 06:59:20;;;;;;;7.82;5.53;;;22.70;62.00;;;20.73;80.98;95918.03;4948395;28;20154;-64
2022/07/28 07:01:46;;;;;;;8.68;5.57;;;22.80;61.50;;;20.80;79.96;95919.41;4934146;28;20527;-64
2022/07/28 07:04:11;;;;;;;6.03;5.28;;;22.80;61.30;;;20.93;79.20;95922.69;4966598;28;20035;-63
2022/07/28 07:06:37;;;;;;;7.68;5.18;;;23.00;60.60;;;21.02;79.18;95919.25;4933197;28;20051;-64
2022/07/28 07:09:03;;;;;;;5.72;4.93;;;23.10;60.90;;;21.14;78.80;95923.63;4949351;28;20059;-63
2022/07/28 07:11:29;;;;;;;7.88;5.07;;;23.30;60.30;;;21.26;78.17;95927.72;4949796;28;20038;-64
2022/07/28 07:13:54;;;;;;;8.30;5.13;;;23.40;59.40;;;21.35;77.75;95928.84;4950166;28;20039;-64
2022/07/28 07:16:20;;;;;;;9.35;5.45;;;23.50;59.70;;;21.47;77.68;95917.09;4964793;28;20129;-63
2022/07/28 07:18:49;;;;;;;8.02;5.10;;;23.60;59.40;;;21.58;77.50;95913.41;4917113;29;20365;-64
2022/07/28 07:21:15;;;;;;;6.45;5.03;;;23.70;59.70;;;21.71;77.26;95902.19;4935574;29;20599;-64
2022/07/28 07:23:41;;;;;;;5.75;5.03;;;23.90;59.60;;;21.86;76.97;95901.44;4934059;28;20043;-64
2022/07/28 07:26:06;;;;;;;7.05;4.88;;;24.00;58.70;;;21.99;75.81;95891.03;4936485;28;20035;-64
2022/07/28 07:28:33;;;;;;;12.20;5.43;;;24.10;58.20;;;22.16;74.87;95892.66;4950196;28;20503;-64
2022/07/28 07:30:59;;;;;;;6.47;5.18;;;24.30;57.60;;;22.25;74.62;95901.78;4931839;28;20069;-64
2022/07/28 07:33:24;;;;;;;7.43;4.90;;;24.30;57.20;;;22.35;74.45;95892.94;4949768;28;20051;-65
2022/07/28 07:35:50;;;;;;;5.50;4.70;;;24.50;57.00;;;22.47;73.76;95890.78;4965099;28;20043;-65
2022/07/28 07:38:16;;;;;;;7.45;4.82;;;24.60;56.10;;;22.60;72.93;95888.34;4966734;28;20431;-63
2022/07/28 07:40:42;;;;;;;6.45;4.22;;;24.70;56.30;;;22.76;73.08;95891.03;4958909;28;20525;-65
2022/07/28 07:43:08;;;;;;;6.10;4.43;;;25.00;56.00;;;22.91;72.04;95891.03;4951997;28;20528;-62
2022/07/28 07:45:33;;;;;;;4.93;4.30;;;25.10;55.30;;;23.05;71.97;95889.38;4949101;28;20043;-64
2022/07/28 07:48:01;;;;;;;6.07;4.32;;;25.30;55.10;;;23.21;71.02;95888.25;4933480;28;20573;-64
2022/07/28 07:50:26;;;;;;;10.88;4.88;;;25.50;54.90;;;23.35;71.01;95893.84;4962657;28;20057;-64
2022/07/28 07:52:52;;;;;;;6.63;4.65;;;25.60;54.20;;;23.51;70.13;95883.84;4949574;28;20150;-63
2022/07/28 07:55:18;;;;;;;7.05;4.45;;;25.80;53.20;;;23.65;70.07;95887.56;4948901;28;20039;-64
2022/07/28 07:57:44;;;;;;;6.65;4.05;;;26.00;53.60;;;23.79;69.71;95885.09;4963420;28;20036;-63
2022/07/28 08:00:10;;;;;;;6.35;4.75;;;26.10;53.60;;;23.85;68.95;95880.47;4950396;28;20077;-63
2022/07/28 08:02:40;;;;;;;6.28;3.80;;;26.00;53.20;;;24.02;68.68;95880.91;4916061;29;20040;-63
2022/07/28 08:05:06;;;;;;;5.60;3.37;;;26.40;53.60;;;24.19;69.09;95875.94;4948585;28;20410;-65
2022/07/28 08:07:32;;;;;;;6.68;4.15;;;26.50;53.30;;;24.37;68.49;95887.91;4931357;28;20439;-65
2022/07/28 08:09:58;;;;;;;6.07;3.78;;;26.70;52.00;;;24.52;67.61;95884.31;4933315;28;20128;-64
2022/07/28 08:12:24;;;;;;;6.57;3.67;;;26.90;51.90;;;24.66;67.24;95885.25;4949262;28;20027;-64
2022/07/28 08:14:49;;;;;;;6.53;3.60;;;27.10;51.70;;;24.86;66.56;95874.28;4920064;29;20063;-61
2022/07/28 08:17:15;;;;;;;8.32;3.90;;;27.40;50.40;;;24.98;65.95;95882.78;4950395;28;20039;-62
2022/07/28 08:19:41;;;;;;;5.13;3.47;;;27.50;49.50;;;25.09;65.40;95877.31;4948714;28;20031;-63
2022/07/28 08:22:06;;;;;;;5.22;3.85;;;27.50;50.30;;;25.23;64.53;95879.03;4965477;28;20106;-64
2022/07/28 08:24:32;;;;;;;3.97;3.17;;;27.70;48.80;;;25.36;64.44;95887.53;4947177;28;20428;-65
2022/07/28 08:26:58;;;;;;;6.10;3.50;;;27.90;49.20;;;25.50;63.69;95886.50;4932046;28;20096;-64
2022/07/28 08:29:26;;;;;;;5.05;3.42;;;28.10;48.00;;;25.68;63.55;95879.59;4949430;28;20047;-64
2022/07/28 08:31:52;;;;;;;5.07;3.60;;;28.40;47.50;;;25.84;62.71;95872.09;4933615;28;20047;-64
2022/07/28 08:34:18;;;;;;;5.63;3.20;;;28.50;47.20;;;26.02;62.58;95873.97;4948788;28;20031;-63
2022/07/28 08:36:43;;;;;;;6.78;3.28;;;28.80;47.50;;;26.20;62.57;95873.16;4931898;28;20525;-63
2022/07/28 08:39:09;;;;;;;7.63;3.20;;;29.10;46.80;;;26.36;62.19;95867.56;4950361;28;20039;-63
2022/07/28 08:42:01;;;;;;;8.25;3.33;;;29.30;46.40;;;26.57;59.22;95871.53;4941700;28;20055;-63
2022/07/28 08:44:36;;;;;;;5.50;2.90;;;29.60;45.60;;;26.78;59.05;95870.06;4962954;28;20057;-62
2022/07/28 08:47:02;;;;;;;5.82;2.95;;;29.80;44.80;;;27.00;60.22;95872.13;4962310;28;20047;-64
2022/07/28 08:49:28;;;;;;;4.32;2.70;;;30.10;44.10;;;27.22;59.68;95868.75;4948776;28;20467;-63
2022/07/28 08:51:54;;;;;;;6.53;2.88;;;30.40;43.50;;;27.45;58.64;95875.03;4934361;28;20458;-64
2022/07/28 08:54:21;;;;;;;4.50;2.75;;;30.60;42.80;;;27.66;57.97;95865.44;4964444;28;20035;-63
2022/07/28 08:56:47;;;;;;;5.63;2.70;;;30.90;42.60;;;27.95;57.75;95870.44;4913440;29;22234;-63
2022/07/28 08:59:13;;;;;;;3.75;2.40;;;31.20;42.70;;;28.18;56.82;95868.56;4917995;29;20051;-66
2022/07/28 09:01:39;;;;;;;6.25;2.55;;;31.40;40.70;;;28.45;55.37;95864.16;4932384;28;20118;-62
2022/07/28 09:04:06;;;;;;;3.95;2.60;;;31.50;40.30;;;28.57;54.18;95864.41;4932172;28;20035;-61
2022/07/28 09:06:31;;;;;;;5.47;2.40;;;31.50;39.40;;;28.74;54.20;95859.09;4946584;28;20430;-65
2022/07/28 09:08:57;;;;;;;5.55;2.45;;;31.80;40.10;;;29.00;53.56;95861.97;4948362;28;20058;-66
2022/07/28 09:11:23;;;;;;;5.30;2.42;;;32.10;40.20;;;29.22;52.72;95861.91;4948716;28;20070;-62
2022/07/28 09:13:50;;;;;;;4.53;2.35;;;32.30;39.40;;;29.38;51.83;95856.03;4961323;28;20097;-61
2022/07/28 09:16:16;;;;;;;5.47;2.60;;;32.30;38.90;;;29.56;51.22;95857.72;4947470;28;20099;-61
2022/07/28 09:18:42;;;;;;;8.57;2.30;;;32.60;38.00;;;29.77;50.46;95858.72;4929414;28;20061;-61
2022/07/28 09:21:08;;;;;;;5.00;2.47;;;32.70;38.00;;;29.99;50.90;95859.69;4948312;28;20578;-62
2022/07/28 09:23:47;;;;;;;4.20;2.28;;;33.00;38.40;;;30.07;45.51;95858.91;4915135;29;20046;-61
2022/07/28 09:26:13;;;;;;;4.82;2.35;;;33.00;35.70;;;30.19;48.54;95859.06;4962677;28;20114;-62
2022/07/28 09:29:07;;;;;;;3.38;2.10;;;33.10;36.20;;;30.34;44.80;95861.31;4930745;28;20035;-61
2022/07/28 09:31:33;;;;;;;5.00;2.30;;;33.30;36.00;;;30.49;46.70;95854.56;4946567;28;20036;-62
2022/07/28 09:34:00;;;;;;;6.05;2.47;;;33.30;35.50;;;30.59;46.85;95856.16;4946872;28;20035;-61
2022/07/28 09:36:28;;;;;;;4.57;2.83;;;33.50;36.20;;;30.72;46.35;95863.34;4929403;28;20031;-62
2022/07/28 09:38:53;;;;;;;3.70;2.42;;;33.60;35.60;;;30.88;45.79;95848.13;4947751;28;20074;-62
2022/07/28 09:41:22;;;;;;;5.80;2.55;;;33.90;35.40;;;31.13;45.85;95853.78;4930929;28;20032;-62
2022/07/28 09:43:49;;;;;;;9.88;2.22;;;34.30;34.90;;;31.32;45.42;95856.91;4947471;28;20043;-62
2022/07/28 09:46:20;;;;;;;3.42;1.95;;;34.50;35.00;;;31.49;43.56;95851.41;4946123;28;20043;-63
2022/07/28 09:48:49;;;;;;;6.05;2.30;;;34.70;34.20;;;31.67;43.80;95844.69;4932000;28;20067;-63
2022/07/28 09:51:16;;;;;;;4.57;2.08;;;35.00;34.00;;;31.85;43.59;95848.13;4950872;28;20036;-63
2022/07/28 09:53:42;;;;;;;3.58;2.10;;;35.10;32.90;;;32.01;42.98;95840.19;4917923;29;20031;-62
2022/07/28 09:56:08;;;;;;;7.00;2.60;;;35.40;33.00;;;32.17;42.70;95835.75;4926188;28;20098;-68
2022/07/28 09:58:34;;;;;;;4.35;2.08;;;35.60;32.20;;;32.34;42.36;95834.00;4945791;28;20094;-67
2022/07/28 10:01:08;;;;;;;4.93;2.15;;;35.80;32.80;;;32.55;40.22;95837.47;4918688;29;20683;-67
2022/07/28 10:03:35;;;;;;;5.85;2.10;;;36.00;32.20;;;32.64;41.94;95829.22;4963629;28;20043;-67
2022/07/28 10:06:10;;;;;;;4.30;1.90;;;36.30;31.10;;;32.70;41.33;95833.31;4931634;29;20515;-68
2022/07/28 10:08:47;;;;;;;7.32;1.90;;;36.60;30.50;;;32.94;38.87;95833.41;4943047;28;20037;-65
2022/07/28 10:11:15;;;;;;;13.02;2.15;;;37.10;29.90;;;33.17;39.65;95833.75;4945856;28;20106;-67
2022/07/28 10:14:03;;;;;;;2.72;1.50;;;37.50;29.00;;;33.52;38.64;95830.59;4931217;28;20037;-68
2022/07/28 10:16:52;;;;;;;3.40;1.90;;;37.80;29.40;;;33.94;37.01;95826.44;4946479;28;20031;-70
2022/07/28 10:19:18;;;;;;;5.55;2.10;;;38.40;28.10;;;34.22;38.70;95826.47;4946242;28;20406;-69
2022/07/28 10:21:44;;;;;;;3.40;1.80;;;38.50;27.10;;;34.46;37.91;95827.53;4915195;29;20035;-69